Time;durP1;ratioP1;P1;durP2;ratioP2;P2;SDS_P1;SDS_P2;PMS_P1;PMS_P2;Temp;Humidity;BMP_temperature;BMP_pressure;BME280_temperature;BME280_humidity;BME280_pressure;Samples;Min_cycle;Max_cycle;Signal;HPM_P1;HPM_P2
2022/12/06 00:01:45;;;;;;;0.10;0.10;;;3.80;99.90;2.60;97010.00;;;;5070121;28;20696;-74
2022/12/06 00:04:16;;;;;;;0.10;0.10;;;3.90;99.90;2.50;97018.00;;;;5069827;28;20564;-74
2022/12/06 00:06:47;;;;;;;0.10;0.10;;;3.90;99.90;2.50;96938.00;;;;5069994;28;20288;-73
2022/12/06 00:09:21;;;;;;;0.10;0.10;;;3.80;99.90;2.30;97024.00;;;;5070042;28;20632;-73
2022/12/06 00:11:50;;;;;;;0.10;0.10;;;3.80;99.90;2.40;97020.00;;;;5074558;28;20198;-74
2022/12/06 00:14:20;;;;;;;0.10;0.10;;;3.70;99.90;2.40;97028.00;;;;5073863;28;20205;-73
2022/12/06 00:16:48;;;;;;;0.10;0.10;;;3.70;99.90;2.40;97021.00;;;;5074272;28;20194;-73
2022/12/06 00:19:21;;;;;;;0.10;0.10;;;3.70;99.90;2.40;97019.00;;;;5067825;28;20193;-74
2022/12/06 00:21:49;;;;;;;0.10;0.10;;;3.70;99.90;2.40;97027.00;;;;5073916;28;20194;-74
2022/12/06 00:24:22;;;;;;;0.10;0.10;;;3.70;99.90;2.40;97021.00;;;;5073911;28;20216;-74
2022/12/06 00:26:51;;;;;;;0.10;0.10;;;3.70;99.90;2.40;97023.00;;;;5073867;28;20201;-76
2022/12/06 00:29:22;;;;;;;0.10;0.10;;;3.70;99.90;2.40;97039.00;;;;5075730;28;20229;-74
2022/12/06 00:31:50;;;;;;;0.10;0.10;;;3.70;99.90;2.40;97014.00;;;;5072461;28;20197;-74
2022/12/06 00:34:19;;;;;;;0.10;0.10;;;3.70;99.90;2.40;96936.00;;;;5071387;28;20217;-74
2022/12/06 00:36:48;;;;;;;0.10;0.10;;;3.70;99.90;2.40;97012.00;;;;5073288;28;20228;-76
2022/12/06 00:39:18;;;;;;;0.10;0.10;;;3.70;99.90;2.40;96943.00;;;;5073006;28;20194;-73
2022/12/06 00:41:47;;;;;;;0.10;0.10;;;3.70;99.90;2.40;97027.00;;;;5073511;28;20205;-75
2022/12/06 00:44:15;;;;;;;0.10;0.10;;;3.70;99.90;2.40;97005.00;;;;5073625;28;20220;-73
2022/12/06 00:46:44;;;;;;;0.10;0.10;;;3.80;99.90;2.40;97006.00;;;;5073564;28;20209;-73
2022/12/06 00:49:12;;;;;;;0.10;0.10;;;3.70;99.90;2.40;97015.00;;;;5073040;28;20221;-74
2022/12/06 00:51:40;;;;;;;0.10;0.10;;;3.80;99.90;2.50;96953.00;;;;5073626;28;20194;-74
2022/12/06 00:54:13;;;;;;;0.10;0.10;;;3.80;99.90;2.50;96993.00;;;;5073966;28;20228;-73
2022/12/06 00:56:41;;;;;;;0.10;0.10;;;3.80;99.90;2.50;96990.00;;;;5073407;28;20198;-74
2022/12/06 00:59:11;;;;;;;0.10;0.10;;;3.70;99.90;2.50;96979.00;;;;5072894;28;20572;-73
2022/12/06 01:01:41;;;;;;;0.10;0.10;;;3.80;99.90;2.50;96990.00;;;;5072725;28;20571;-73
2022/12/06 01:04:09;;;;;;;0.10;0.10;;;3.80;99.90;2.50;96979.00;;;;5070905;28;20213;-72
2022/12/06 01:06:38;;;;;;;0.10;0.10;;;3.80;99.90;2.50;96970.00;;;;5073133;28;20247;-72
2022/12/06 01:09:09;;;;;;;0.10;0.10;;;3.80;99.90;2.60;96985.00;;;;5066973;28;20217;-74
2022/12/06 01:11:38;;;;;;;0.10;0.10;;;3.90;99.90;2.60;96991.00;;;;5075170;28;20552;-72
2022/12/06 01:14:06;;;;;;;0.10;0.10;;;4.00;99.90;2.60;96984.00;;;;5076117;28;20210;-73
2022/12/06 01:16:36;;;;;;;0.10;0.10;;;3.90;99.90;2.70;96973.00;;;;5074988;28;20247;-72
2022/12/06 01:19:06;;;;;;;0.10;0.10;;;4.00;99.90;2.70;96971.00;;;;5065906;28;20193;-72
2022/12/06 01:21:34;;;;;;;0.10;0.10;;;4.00;99.90;2.80;96916.00;;;;5072802;28;20201;-72
2022/12/06 01:24:02;;;;;;;0.10;0.10;;;4.00;99.90;2.80;96955.00;;;;5080045;28;20210;-74
2022/12/06 01:26:35;;;;;;;0.10;0.10;;;4.10;99.90;2.90;96987.00;;;;5072832;28;20224;-74
2022/12/06 01:29:04;;;;;;;0.10;0.10;;;4.20;99.90;2.90;96978.00;;;;5073075;28;20237;-74
2022/12/06 01:31:32;;;;;;;0.10;0.10;;;4.20;99.90;2.90;96975.00;;;;5072319;28;20202;-73
2022/12/06 01:34:15;;;;;;;0.10;0.10;;;4.30;99.90;2.90;96968.00;;;;5073969;28;20244;-74
2022/12/06 01:36:43;;;;;;;0.10;0.10;;;4.30;99.90;2.90;96955.00;;;;5072441;28;20251;-74
2022/12/06 01:39:12;;;;;;;0.10;0.10;;;4.30;99.90;2.90;96961.00;;;;5072776;28;20668;-73
2022/12/06 01:41:40;;;;;;;0.10;0.10;;;4.30;99.90;2.90;96979.00;;;;5062915;28;20206;-74
2022/12/06 01:44:41;;;;;;;0.10;0.10;;;4.30;99.90;2.80;96968.00;;;;5072012;28;21043;-73
2022/12/06 01:47:15;;;;;;;0.10;0.10;;;4.30;99.90;2.90;96983.00;;;;5066353;28;20660;-74
2022/12/06 01:49:51;;;;;;;0.10;0.10;;;4.30;99.90;2.90;96974.00;;;;5072184;28;20213;-74
2022/12/06 01:52:22;;;;;;;0.10;0.10;;;4.20;99.90;2.80;96956.00;;;;5072204;28;20198;-74
2022/12/06 01:54:50;;;;;;;0.10;0.10;;;4.10;99.90;2.70;96972.00;;;;5066031;28;20624;-73
2022/12/06 01:57:19;;;;;;;0.10;0.10;;;4.00;99.90;2.60;96915.00;;;;5076614;28;20216;-73
2022/12/06 01:59:47;;;;;;;0.10;0.10;;;4.00;99.90;2.70;96925.00;;;;5076965;28;20228;-73
2022/12/06 02:02:16;;;;;;;0.10;0.10;;;4.00;99.90;2.60;96907.00;;;;5077764;28;20194;-73
2022/12/06 02:04:45;;;;;;;0.10;0.10;;;4.00;99.90;2.60;96903.00;;;;5077820;28;20221;-73
2022/12/06 02:07:14;;;;;;;0.10;0.10;;;4.00;99.90;2.00;96894.00;;;;5079806;28;20206;-74
2022/12/06 02:09:44;;;;;;;0.10;0.10;;;4.00;99.90;2.50;96920.00;;;;5081211;28;20217;-74
2022/12/06 02:12:14;;;;;;;0.10;0.10;;;3.90;99.90;2.60;96984.00;;;;5078589;28;20190;-74
2022/12/06 02:14:47;;;;;;;0.10;0.10;;;3.90;99.90;2.60;96830.00;;;;5081988;28;20213;-75
2022/12/06 02:17:29;;;;;;;0.10;0.10;;;3.90;99.90;2.60;96884.00;;;;5081649;28;20259;-73
2022/12/06 02:20:25;;;;;;;0.10;0.10;;;3.90;99.90;2.60;96896.00;;;;5079183;28;20227;-74
2022/12/06 02:23:51;;;;;;;0.10;0.10;;;4.00;99.90;2.60;96877.00;;;;5084698;28;20205;-73
2022/12/06 02:26:30;;;;;;;0.10;0.10;;;3.90;99.90;2.60;96889.00;;;;5093905;28;20216;-75
2022/12/06 02:29:31;;;;;;;0.10;0.10;;;3.90;99.90;2.60;96893.00;;;;5077411;28;20221;-74
2022/12/06 02:32:10;;;;;;;0.10;0.10;;;3.90;99.90;2.60;96870.00;;;;5072383;28;20602;-74
2022/12/06 02:34:48;;;;;;;0.10;0.10;;;3.90;99.90;2.60;96879.00;;;;5073418;28;20264;-73
2022/12/06 02:37:25;;;;;;;0.10;0.10;;;3.80;99.90;2.40;96898.00;;;;5059704;28;20201;-73
2022/12/06 02:40:05;;;;;;;0.10;0.10;;;3.80;99.90;2.50;96898.00;;;;5069493;28;20201;-73
2022/12/06 02:42:41;;;;;;;0.10;0.10;;;3.80;99.90;2.40;96851.00;;;;5075377;28;20608;-73
2022/12/06 02:45:15;;;;;;;0.10;0.10;;;3.70;99.90;2.40;96887.00;;;;5070100;28;20209;-73
2022/12/06 02:47:47;;;;;;;0.10;0.10;;;3.70;99.90;2.40;96950.00;;;;5074996;28;20189;-73
2022/12/06 02:50:22;;;;;;;0.10;0.10;;;3.70;99.90;2.50;96866.00;;;;5067934;28;20237;-73
2022/12/06 02:52:56;;;;;;;0.10;0.10;;;3.80;99.90;2.50;96883.00;;;;5075757;28;20205;-73
2022/12/06 02:55:28;;;;;;;0.10;0.10;;;3.80;99.90;2.40;96871.00;;;;5068743;28;20275;-73
2022/12/06 02:57:57;;;;;;;0.10;0.10;;;3.70;99.90;2.40;96874.00;;;;5070030;28;20202;-74
2022/12/06 03:00:39;;;;;;;0.10;0.10;;;3.80;99.90;2.40;96865.00;;;;5070707;28;20197;-73
2022/12/06 03:03:39;;;;;;;0.10;0.10;;;3.80;99.90;2.50;96866.00;;;;5066088;28;20204;-73
2022/12/06 03:06:33;;;;;;;0.10;0.10;;;3.80;99.90;2.50;96870.00;;;;5071490;28;20200;-74
2022/12/06 03:09:17;;;;;;;0.10;0.10;;;3.80;99.90;2.50;96868.00;;;;5065532;28;20193;-73
2022/12/06 03:11:57;;;;;;;0.10;0.10;;;3.80;99.90;2.50;96854.00;;;;5071237;28;20271;-74
2022/12/06 03:14:30;;;;;;;0.10;0.10;;;3.80;99.90;2.60;96854.00;;;;5071196;28;20236;-73
2022/12/06 03:17:15;;;;;;;0.10;0.10;;;3.90;99.90;2.50;96860.00;;;;5064442;28;20194;-74
2022/12/06 03:19:50;;;;;;;0.10;0.10;;;3.80;99.90;2.50;96847.00;;;;5068854;28;20197;-74
2022/12/06 03:22:25;;;;;;;0.10;0.10;;;3.80;99.90;2.50;96846.00;;;;5070988;28;20242;-74
2022/12/06 03:24:55;;;;;;;0.10;0.10;;;3.80;99.90;2.50;96849.00;;;;5071263;28;20216;-73
2022/12/06 03:27:26;;;;;;;0.10;0.10;;;3.80;99.90;2.60;96870.00;;;;5070334;28;20197;-73
2022/12/06 03:30:00;;;;;;;0.10;0.10;;;3.80;99.90;2.50;96864.00;;;;5070508;28;20231;-73
2022/12/06 03:32:33;;;;;;;0.10;0.10;;;3.90;99.90;2.50;96851.00;;;;5068344;28;20266;-73
2022/12/06 03:35:10;;;;;;;0.10;0.10;;;3.80;99.90;2.50;96849.00;;;;5066824;28;20271;-74
2022/12/06 03:37:43;;;;;;;0.10;0.10;;;3.80;99.90;2.50;96862.00;;;;5069816;28;20583;-74
2022/12/06 03:40:19;;;;;;;0.10;0.10;;;3.90;99.90;2.60;96867.00;;;;5070446;28;20197;-74
2022/12/06 03:42:49;;;;;;;0.10;0.10;;;3.90;99.90;2.50;96862.00;;;;5070120;28;20243;-74
2022/12/06 03:45:18;;;;;;;0.10;0.10;;;3.90;99.90;2.50;96850.00;;;;5074948;28;20205;-75
2022/12/06 03:47:54;;;;;;;0.10;0.10;;;3.80;99.90;2.60;96854.00;;;;5073903;28;20193;-74
2022/12/06 03:50:31;;;;;;;0.10;0.10;;;3.90;99.90;2.50;96850.00;;;;5074490;28;20209;-74
2022/12/06 03:53:01;;;;;;;0.10;0.10;;;3.90;99.90;2.50;96848.00;;;;5067928;28;20262;-74
2022/12/06 03:55:29;;;;;;;0.10;0.10;;;3.70;99.90;2.50;96869.00;;;;5071114;28;20228;-74
2022/12/06 03:57:58;;;;;;;0.10;0.10;;;3.80;99.90;2.50;96858.00;;;;5068589;28;20193;-74
2022/12/06 04:00:26;;;;;;;0.10;0.10;;;3.80;99.90;2.50;96852.00;;;;5074704;28;20236;-74
2022/12/06 04:02:54;;;;;;;0.10;0.10;;;3.80;99.90;2.50;96846.00;;;;5070964;28;20249;-74
2022/12/06 04:05:23;;;;;;;0.10;0.10;;;3.80;99.90;2.50;96838.00;;;;5073826;28;20216;-74
2022/12/06 04:07:51;;;;;;;0.10;0.10;;;3.90;99.90;2.40;96822.00;;;;5065764;28;20673;-74
2022/12/06 04:10:20;;;;;;;0.10;0.10;;;3.70;99.90;2.30;96807.00;;;;5073777;28;20267;-74
2022/12/06 04:13:00;;;;;;;0.10;0.10;;;3.60;99.90;2.40;96815.00;;;;5074295;28;20190;-74
2022/12/06 04:15:30;;;;;;;0.10;0.10;;;3.70;99.90;2.50;96782.00;;;;5073908;28;20217;-74
2022/12/06 04:18:12;;;;;;;0.10;0.10;;;3.80;99.90;2.50;96815.00;;;;5073497;28;20185;-74
2022/12/06 04:23:34;;;;;;;0.10;0.10;;;3.80;99.90;2.50;96804.00;;;;5052760;28;20209;-74
2022/12/06 04:26:03;;;;;;;0.10;0.10;;;3.80;99.90;2.50;96808.00;;;;5074397;28;20696;-74
2022/12/06 04:39:38;;;;;;;0.10;0.10;;;3.70;99.90;2.50;96798.00;;;;5077670;28;20193;-78
2022/12/06 04:44:52;;;;;;;0.10;0.10;;;3.80;99.90;2.60;96804.00;;;;5064559;28;20210;-76
2022/12/06 04:47:20;;;;;;;0.10;0.10;;;3.90;99.90;2.50;96793.00;;;;5068675;28;20194;-73
2022/12/06 04:49:48;;;;;;;0.10;0.10;;;3.80;99.90;2.50;96797.00;;;;5073511;28;20600;-78
2022/12/06 04:52:18;;;;;;;0.10;0.10;;;3.80;99.90;2.50;96793.00;;;;5074244;28;20197;-77
2022/12/06 04:54:47;;;;;;;0.03;0.03;;;3.80;99.90;2.60;96806.00;;;;5075338;28;20213;-77
2022/12/06 04:57:16;;;;;;;0.10;0.10;;;3.90;99.90;2.60;96791.00;;;;5075133;28;20193;-77
2022/12/06 04:59:46;;;;;;;0.10;0.10;;;3.90;99.90;2.50;96785.00;;;;5074040;28;20197;-77
2022/12/06 05:02:15;;;;;;;0.10;0.10;;;3.80;99.90;2.50;96812.00;;;;5071670;28;20206;-77
2022/12/06 05:04:43;;;;;;;0.10;0.10;;;3.80;99.90;2.50;96791.00;;;;5071684;28;20244;-77
2022/12/06 05:07:12;;;;;;;0.10;0.10;;;3.80;99.90;2.50;96804.00;;;;5073540;28;20201;-77
2022/12/06 05:09:41;;;;;;;0.10;0.10;;;3.80;99.90;2.50;96813.00;;;;5074456;28;20247;-77
2022/12/06 05:12:09;;;;;;;0.10;0.10;;;3.80;99.90;2.50;96784.00;;;;5073447;28;20720;-75
2022/12/06 05:14:37;;;;;;;0.10;0.10;;;3.80;99.90;2.50;96795.00;;;;5070778;28;20220;-76
2022/12/06 05:17:05;;;;;;;0.10;0.10;;;3.80;99.90;2.50;96792.00;;;;5072895;28;20190;-73
2022/12/06 05:19:33;;;;;;;0.10;0.10;;;3.80;99.90;2.50;96779.00;;;;5076391;28;20185;-69
2022/12/06 05:22:02;;;;;;;0.10;0.10;;;3.80;99.90;2.50;96789.00;;;;5090570;28;20209;-71
2022/12/06 05:24:30;;;;;;;0.10;0.10;;;3.80;99.90;2.50;96802.00;;;;5082802;28;20214;-69
2022/12/06 05:26:59;;;;;;;0.10;0.10;;;3.80;99.90;2.50;96800.00;;;;5078853;28;20423;-74
2022/12/06 05:29:27;;;;;;;0.10;0.10;;;3.80;99.90;2.50;96792.00;;;;5068525;28;20803;-75
2022/12/06 05:31:55;;;;;;;0.10;0.10;;;3.80;99.90;2.50;96795.00;;;;5082991;28;20245;-76
2022/12/06 05:34:24;;;;;;;0.10;0.10;;;3.80;99.90;2.50;96783.00;;;;5093340;28;20244;-73
2022/12/06 05:36:52;;;;;;;0.10;0.10;;;3.80;99.90;2.50;96783.00;;;;5092941;28;20194;-73
2022/12/06 05:39:20;;;;;;;0.10;0.10;;;3.80;99.90;2.50;96777.00;;;;5087095;28;20220;-75
2022/12/06 05:41:48;;;;;;;0.10;0.10;;;3.80;99.90;2.50;96788.00;;;;5092046;28;20243;-76
2022/12/06 05:44:18;;;;;;;0.10;0.10;;;3.80;99.90;2.50;96785.00;;;;5072461;28;20210;-77
2022/12/06 05:46:46;;;;;;;0.10;0.10;;;3.80;99.90;2.50;96780.00;;;;5072575;28;20255;-76
2022/12/06 05:49:14;;;;;;;0.10;0.10;;;3.80;99.90;2.50;96795.00;;;;5069853;28;20194;-77
2022/12/06 05:51:43;;;;;;;0.10;0.10;;;3.80;99.90;2.50;96786.00;;;;5066947;28;20267;-76
2022/12/06 05:54:11;;;;;;;0.10;0.10;;;3.80;99.90;2.60;96783.00;;;;5068806;28;20635;-75
2022/12/06 05:56:39;;;;;;;0.10;0.10;;;3.90;99.90;2.50;96775.00;;;;5072237;28;20248;-76
2022/12/06 05:59:08;;;;;;;0.10;0.10;;;3.80;99.90;2.50;96774.00;;;;5071735;28;20236;-76
2022/12/06 06:01:37;;;;;;;0.10;0.10;;;3.80;99.90;2.50;96787.00;;;;5073167;28;20190;-76
2022/12/06 06:04:06;;;;;;;0.10;0.10;;;3.80;99.90;2.60;96784.00;;;;5072700;28;20220;-76
2022/12/06 06:06:34;;;;;;;0.10;0.10;;;3.80;99.90;2.50;96771.00;;;;5072733;28;20198;-77
2022/12/06 06:09:02;;;;;;;0.10;0.10;;;3.80;99.90;2.60;96776.00;;;;5070911;28;20220;-77
2022/12/06 06:11:30;;;;;;;0.10;0.10;;;3.90;99.90;2.60;96787.00;;;;5072145;28;20265;-76
2022/12/06 06:13:58;;;;;;;0.10;0.10;;;3.90;99.90;2.60;96794.00;;;;5072612;28;20347;-76
2022/12/06 06:16:26;;;;;;;0.10;0.10;;;3.90;99.90;2.60;96784.00;;;;5072198;28;20750;-77
2022/12/06 06:18:56;;;;;;;0.10;0.10;;;3.90;99.90;2.60;96782.00;;;;5071311;28;20231;-76
2022/12/06 06:21:24;;;;;;;0.10;0.10;;;3.90;99.90;2.60;96787.00;;;;5071056;28;20254;-76
2022/12/06 06:23:52;;;;;;;0.10;0.10;;;3.90;99.90;2.60;96777.00;;;;5070536;28;20214;-77
2022/12/06 06:26:20;;;;;;;0.10;0.10;;;3.90;99.90;2.70;96803.00;;;;5071208;28;20255;-74
2022/12/06 06:28:49;;;;;;;0.10;0.10;;;4.00;99.90;2.70;96784.00;;;;5069931;28;20259;-76
2022/12/06 06:31:17;;;;;;;0.10;0.10;;;4.10;99.90;2.70;96783.00;;;;5071394;28;20318;-76
2022/12/06 06:33:45;;;;;;;0.10;0.10;;;4.00;99.90;2.70;96778.00;;;;5072382;28;20181;-76
2022/12/06 06:36:14;;;;;;;0.10;0.10;;;4.00;99.90;2.70;96778.00;;;;5071803;28;20194;-76
2022/12/06 06:38:42;;;;;;;0.10;0.10;;;4.00;99.90;2.70;96796.00;;;;5066315;28;20195;-76
2022/12/06 06:41:11;;;;;;;0.10;0.10;;;4.00;99.90;2.60;96806.00;;;;5063513;28;20205;-76
2022/12/06 06:43:39;;;;;;;0.10;0.10;;;4.00;99.90;2.70;96786.00;;;;5071438;28;20190;-76
2022/12/06 06:46:08;;;;;;;0.10;0.10;;;4.00;99.90;2.70;96801.00;;;;5071729;28;20203;-76
2022/12/06 06:48:38;;;;;;;0.10;0.10;;;4.00;99.90;2.80;96789.00;;;;5067985;28;20553;-76
2022/12/06 06:51:10;;;;;;;0.10;0.10;;;4.00;99.90;2.70;96791.00;;;;5056204;28;20283;-76
2022/12/06 06:53:40;;;;;;;0.10;0.10;;;4.00;99.90;2.70;96745.00;;;;5071919;28;20734;-76
2022/12/06 06:56:09;;;;;;;0.10;0.10;;;4.00;99.90;2.70;96790.00;;;;5071686;28;20193;-76
2022/12/06 06:58:37;;;;;;;0.10;0.10;;;3.90;99.90;2.60;96789.00;;;;5070965;28;20255;-76
2022/12/06 07:01:09;;;;;;;0.10;0.10;;;3.90;99.90;2.60;96787.00;;;;5072606;28;20197;-76
2022/12/06 07:03:37;;;;;;;0.10;0.10;;;3.90;99.90;2.70;96805.00;;;;5071664;28;20251;-76
2022/12/06 07:06:10;;;;;;;0.10;0.10;;;3.90;99.90;2.70;96794.00;;;;5071909;28;20186;-76
2022/12/06 07:08:41;;;;;;;0.10;0.10;;;4.00;99.90;2.70;96727.00;;;;5071423;28;20193;-74
2022/12/06 07:11:10;;;;;;;0.10;0.10;;;4.00;99.90;2.70;96788.00;;;;5072004;28;20194;-75
2022/12/06 07:13:42;;;;;;;0.10;0.10;;;4.00;99.90;2.70;96812.00;;;;5071448;28;20189;-74
2022/12/06 07:16:19;;;;;;;0.10;0.10;;;4.00;99.90;2.70;96795.00;;;;5071653;28;20272;-74
2022/12/06 07:18:47;;;;;;;0.10;0.10;;;4.00;99.90;2.70;96797.00;;;;5071490;28;20216;-74
2022/12/06 07:21:17;;;;;;;0.10;0.10;;;3.90;99.90;2.70;96791.00;;;;5071534;28;20568;-74
2022/12/06 07:23:46;;;;;;;0.10;0.10;;;4.00;99.90;2.60;96791.00;;;;5071451;28;20216;-75
2022/12/06 07:26:17;;;;;;;0.10;0.10;;;3.90;99.90;2.70;96790.00;;;;5071401;28;20194;-74
2022/12/06 07:28:47;;;;;;;0.10;0.10;;;4.00;99.90;2.70;96799.00;;;;5070803;28;20193;-75
2022/12/06 07:31:19;;;;;;;0.00;0.00;;;4.00;99.90;2.70;96807.00;;;;5071323;28;20272;-75
2022/12/06 07:33:50;;;;;;;0.10;0.10;;;4.00;99.90;2.70;96801.00;;;;5071463;28;20233;-75
2022/12/06 07:36:19;;;;;;;0.10;0.10;;;4.00;99.90;2.70;96790.00;;;;5071256;28;20251;-72
2022/12/06 07:38:50;;;;;;;0.10;0.10;;;4.00;99.90;2.60;96798.00;;;;5070701;28;20893;-72
2022/12/06 07:47:04;;;;;;;0.10;0.10;;;3.90;99.90;2.60;96734.00;;;;5071049;28;20197;-73
2022/12/06 07:49:32;;;;;;;0.10;0.10;;;3.90;99.90;2.60;96795.00;;;;5070924;28;20202;-72
2022/12/06 07:52:01;;;;;;;0.10;0.10;;;3.90;99.90;2.70;96784.00;;;;5067337;28;20684;-73
2022/12/06 07:54:30;;;;;;;0.10;0.10;;;3.90;99.90;2.60;96778.00;;;;5070982;28;20221;-72
2022/12/06 07:56:58;;;;;;;0.10;0.10;;;3.90;99.90;2.70;96784.00;;;;5070926;28;20251;-74
2022/12/06 07:59:27;;;;;;;0.10;0.10;;;4.00;99.90;2.80;96792.00;;;;5070322;28;20604;-75
2022/12/06 08:01:55;;;;;;;0.10;0.10;;;4.00;99.90;2.80;96786.00;;;;5071186;28;20198;-72
2022/12/06 08:04:23;;;;;;;0.10;0.10;;;4.10;99.90;2.80;96800.00;;;;5071133;28;20285;-73
2022/12/06 08:06:51;;;;;;;0.10;0.10;;;4.00;99.90;2.80;96787.00;;;;5071092;28;20699;-73
2022/12/06 08:09:19;;;;;;;0.10;0.10;;;4.10;99.90;2.80;96813.00;;;;5070742;28;20237;-72
2022/12/06 08:11:49;;;;;;;0.10;0.10;;;4.00;99.90;2.80;96806.00;;;;5070956;28;20629;-72
2022/12/06 08:14:17;;;;;;;0.10;0.10;;;4.00;99.90;2.80;96815.00;;;;5070859;28;20205;-73
2022/12/06 08:16:45;;;;;;;0.10;0.10;;;4.10;99.90;2.80;96815.00;;;;5071000;28;20215;-73
2022/12/06 08:19:13;;;;;;;0.10;0.10;;;4.10;99.90;2.80;96806.00;;;;5070265;28;20198;-74
2022/12/06 08:21:41;;;;;;;0.10;0.10;;;4.10;99.90;2.80;96824.00;;;;5070991;28;20186;-73
2022/12/06 08:24:09;;;;;;;0.10;0.10;;;4.00;99.90;2.80;96807.00;;;;5070950;28;20255;-73
2022/12/06 08:26:37;;;;;;;0.10;0.10;;;4.00;99.90;2.80;96811.00;;;;5070769;28;20198;-72
2022/12/06 08:29:07;;;;;;;0.10;0.10;;;4.00;99.90;2.80;96809.00;;;;5070063;28;20206;-72
2022/12/06 08:31:35;;;;;;;0.10;0.10;;;4.10;99.90;2.90;96817.00;;;;5073066;28;20194;-73
2022/12/06 08:34:04;;;;;;;0.10;0.10;;;4.20;99.90;2.90;96809.00;;;;5074603;28;20217;-73
2022/12/06 08:36:33;;;;;;;0.10;0.10;;;4.10;99.90;2.90;96814.00;;;;5074585;28;20222;-74
2022/12/06 08:39:01;;;;;;;0.10;0.10;;;4.20;99.90;2.90;96801.00;;;;5073885;28;20201;-75
2022/12/06 08:44:19;;;;;;;0.10;0.10;;;4.10;99.90;2.90;96818.00;;;;5073999;28;20271;-73
2022/12/06 08:46:48;;;;;;;0.10;0.10;;;4.10;99.90;2.90;96809.00;;;;5074299;28;20235;-73
2022/12/06 08:49:17;;;;;;;0.10;0.10;;;4.10;99.90;2.90;96806.00;;;;5073550;28;20664;-73
2022/12/06 08:51:46;;;;;;;0.10;0.10;;;4.20;99.90;2.90;96812.00;;;;5074245;28;20236;-73
2022/12/06 08:54:18;;;;;;;0.10;0.10;;;4.20;99.90;2.80;96798.00;;;;5073883;28;20206;-73
2022/12/06 08:56:46;;;;;;;0.10;0.10;;;4.10;99.90;2.80;96820.00;;;;5074133;28;20255;-73
2022/12/06 08:59:16;;;;;;;0.10;0.10;;;4.10;99.90;2.80;96808.00;;;;5073086;28;20235;-73
2022/12/06 09:01:45;;;;;;;0.10;0.10;;;4.10;99.90;2.80;96820.00;;;;5073427;28;20190;-73
2022/12/06 09:04:14;;;;;;;0.20;0.20;;;4.10;99.90;2.80;96804.00;;;;5074093;28;20286;-72
2022/12/06 09:06:44;;;;;;;0.10;0.10;;;4.10;99.90;2.80;96799.00;;;;5073929;28;20200;-73
2022/12/06 09:09:15;;;;;;;0.10;0.10;;;4.10;99.90;2.80;96793.00;;;;5073000;28;20186;-74
2022/12/06 09:11:45;;;;;;;0.10;0.10;;;4.10;99.90;2.80;96790.00;;;;5073741;28;20194;-73
2022/12/06 09:14:18;;;;;;;0.10;0.10;;;4.10;99.90;2.80;96800.00;;;;5073416;28;20221;-73
2022/12/06 09:16:50;;;;;;;0.00;0.00;;;4.10;99.90;2.80;96809.00;;;;5074278;28;20185;-73
2022/12/06 09:19:20;;;;;;;0.10;0.10;;;4.10;99.90;2.80;96807.00;;;;5074108;28;20259;-73
2022/12/06 09:21:48;;;;;;;0.10;0.10;;;4.10;99.90;2.90;96809.00;;;;5074036;28;20248;-73
2022/12/06 09:24:18;;;;;;;0.10;0.10;;;4.10;99.90;2.80;96806.00;;;;5073270;28;20255;-73
2022/12/06 09:26:47;;;;;;;0.10;0.10;;;4.10;99.90;2.80;96814.00;;;;5073582;28;20194;-73
2022/12/06 09:29:18;;;;;;;0.10;0.10;;;4.10;99.90;2.80;96803.00;;;;5073271;28;20202;-73
2022/12/06 09:31:47;;;;;;;0.10;0.10;;;4.10;99.90;2.90;96807.00;;;;5073528;28;20260;-73
2022/12/06 09:34:15;;;;;;;0.10;0.10;;;4.10;99.90;2.90;96804.00;;;;5073150;28;20221;-74
2022/12/06 09:36:50;;;;;;;0.10;0.10;;;4.20;99.90;3.00;96806.00;;;;5073403;28;20193;-73
2022/12/06 09:39:24;;;;;;;0.20;0.20;;;4.20;99.90;3.00;96808.00;;;;5072560;28;20661;-73
2022/12/06 09:42:31;;;;;;;0.10;0.10;;;4.20;99.90;2.90;96805.00;;;;5072957;28;20193;-73
2022/12/06 09:45:17;;;;;;;0.10;0.10;;;4.20;99.90;2.90;96758.00;;;;5060919;28;20622;-74
2022/12/06 09:48:29;;;;;;;0.10;0.10;;;4.20;99.90;2.90;96807.00;;;;5068967;28;20198;-74
2022/12/06 09:51:17;;;;;;;0.10;0.10;;;4.10;99.90;2.90;96802.00;;;;5073120;28;20185;-74
2022/12/06 09:54:02;;;;;;;0.10;0.10;;;4.20;99.90;2.90;96806.00;;;;5072705;28;20735;-74
2022/12/06 09:56:42;;;;;;;0.10;0.10;;;4.10;99.90;2.90;96800.00;;;;5072939;28;20190;-73
2022/12/06 09:59:23;;;;;;;0.10;0.10;;;4.20;99.90;3.00;96795.00;;;;5072348;28;20674;-74
2022/12/06 10:02:20;;;;;;;0.10;0.10;;;4.20;99.90;2.90;96793.00;;;;5072932;28;20190;-74
2022/12/06 10:05:16;;;;;;;0.10;0.10;;;4.20;99.90;2.80;96788.00;;;;5072917;28;20205;-73
2022/12/06 10:07:58;;;;;;;0.10;0.10;;;4.10;99.90;2.80;96791.00;;;;5072334;28;20198;-73
2022/12/06 10:10:43;;;;;;;0.10;0.10;;;4.10;99.90;2.70;96781.00;;;;5072409;28;20187;-73
2022/12/06 10:13:18;;;;;;;0.10;0.10;;;4.00;99.90;2.70;96785.00;;;;5072467;28;20218;-73
2022/12/06 10:16:06;;;;;;;0.10;0.10;;;4.00;99.90;2.80;96789.00;;;;5072522;28;20243;-74
2022/12/06 10:18:56;;;;;;;0.10;0.10;;;4.10;99.90;2.80;96781.00;;;;5071891;28;20327;-74
2022/12/06 10:21:41;;;;;;;0.10;0.10;;;4.10;99.90;2.70;96790.00;;;;5072363;28;20224;-73
2022/12/06 10:24:32;;;;;;;0.10;0.10;;;4.00;99.90;2.80;96790.00;;;;5072598;28;20290;-73
2022/12/06 10:27:08;;;;;;;0.10;0.10;;;4.00;99.90;2.80;96795.00;;;;5072536;28;20185;-73
2022/12/06 10:29:53;;;;;;;0.10;0.10;;;4.10;99.90;2.80;96787.00;;;;5071731;28;20266;-74
2022/12/06 10:32:40;;;;;;;0.10;0.10;;;4.10;99.90;2.80;96719.00;;;;5072216;28;20657;-73
2022/12/06 10:35:29;;;;;;;0.10;0.10;;;4.10;99.90;2.90;96788.00;;;;5072403;28;20299;-73
2022/12/06 10:38:10;;;;;;;0.10;0.10;;;4.20;99.90;3.00;96801.00;;;;5071234;28;20692;-73
2022/12/06 10:40:54;;;;;;;0.10;0.10;;;4.30;99.90;3.10;96793.00;;;;5061667;28;20191;-74
2022/12/06 10:43:31;;;;;;;0.10;0.10;;;4.30;99.90;3.10;96788.00;;;;5071768;28;20205;-73
2022/12/06 10:49:06;;;;;;;0.10;0.10;;;4.40;99.90;3.00;96786.00;;;;5071169;28;20284;-72
2022/12/06 10:51:42;;;;;;;0.10;0.10;;;4.30;99.90;2.80;96784.00;;;;5071904;28;20251;-73
2022/12/06 10:54:23;;;;;;;0.10;0.10;;;4.20;99.90;2.80;96792.00;;;;5072166;28;20224;-73
2022/12/06 10:56:56;;;;;;;0.10;0.10;;;4.20;99.90;2.90;96802.00;;;;5072116;28;20194;-73
2022/12/06 10:59:36;;;;;;;0.10;0.10;;;4.20;99.90;2.80;96803.00;;;;5071183;28;20713;-72
2022/12/06 11:02:23;;;;;;;0.10;0.10;;;4.10;99.90;2.80;96788.00;;;;5071659;28;20255;-73
2022/12/06 11:04:58;;;;;;;0.10;0.10;;;4.10;99.90;2.70;96794.00;;;;5071492;28;20264;-73
2022/12/06 11:07:37;;;;;;;0.10;0.10;;;4.00;99.90;2.80;96815.00;;;;5071291;28;20189;-73
2022/12/06 11:10:19;;;;;;;0.10;0.10;;;4.10;99.90;2.60;96784.00;;;;5072361;28;20264;-73
2022/12/06 11:12:54;;;;;;;0.10;0.10;;;4.00;99.90;2.70;96784.00;;;;5071937;28;20208;-73
2022/12/06 11:15:27;;;;;;;0.10;0.10;;;4.10;99.90;2.80;96799.00;;;;5071281;28;20251;-75
2022/12/06 11:18:10;;;;;;;0.10;0.10;;;4.10;99.90;2.90;96795.00;;;;5070860;28;20247;-73
2022/12/06 11:20:44;;;;;;;0.10;0.10;;;4.10;99.90;2.80;96790.00;;;;5071515;28;20239;-73
2022/12/06 11:23:25;;;;;;;0.10;0.10;;;4.10;99.90;2.70;96782.00;;;;5071782;28;20193;-73
2022/12/06 11:26:11;;;;;;;0.10;0.10;;;4.00;99.90;2.50;96778.00;;;;5071450;28;20213;-73
2022/12/06 11:28:42;;;;;;;0.10;0.10;;;3.90;99.90;2.40;96772.00;;;;5070866;28;20649;-72
2022/12/06 11:31:25;;;;;;;0.10;0.10;;;3.80;99.90;2.30;96773.00;;;;5071707;28;20251;-75
2022/12/06 11:33:53;;;;;;;0.10;0.10;;;3.70;99.90;2.30;96773.00;;;;5071272;28;20253;-73
2022/12/06 11:36:23;;;;;;;0.10;0.10;;;3.70;99.90;2.30;96782.00;;;;5071174;28;20657;-73
2022/12/06 11:38:53;;;;;;;0.10;0.10;;;3.60;99.90;2.40;96789.00;;;;5070812;28;20190;-73
2022/12/06 11:41:25;;;;;;;0.10;0.10;;;3.70;99.90;2.20;96763.00;;;;5071304;28;20197;-73
2022/12/06 11:43:55;;;;;;;0.10;0.10;;;3.60;99.90;2.30;96781.00;;;;5071684;28;20591;-73
2022/12/06 11:46:25;;;;;;;0.10;0.10;;;3.60;99.90;2.30;96790.00;;;;5071793;28;20205;-74
2022/12/06 11:48:57;;;;;;;0.10;0.10;;;3.60;99.90;2.20;96798.00;;;;5072351;28;20196;-74
2022/12/06 11:51:25;;;;;;;0.10;0.10;;;3.60;99.90;2.20;96783.00;;;;5071081;28;20244;-75
2022/12/06 11:54:04;;;;;;;0.00;0.00;;;3.60;99.90;2.20;96780.00;;;;5070935;28;20228;-75
2022/12/06 11:56:35;;;;;;;0.00;0.00;;;3.50;99.90;2.30;96780.00;;;;5071062;28;20255;-74
2022/12/06 11:59:23;;;;;;;0.10;0.10;;;3.60;99.90;2.20;96763.00;;;;5070554;28;20606;-75
2022/12/06 12:01:54;;;;;;;0.10;0.10;;;3.50;99.90;2.20;96765.00;;;;5058280;28;20578;-75
2022/12/06 12:04:36;;;;;;;0.10;0.10;;;3.60;99.90;2.20;96756.00;;;;5065186;28;20723;-74